sensor_id;sensor_type;location;lat;lon;timestamp;temperature;humidity
15546;DHT22;7874;48.870;11.074;2023-06-26T00:48:34;17.30;99.90
15546;DHT22;7874;48.870;11.074;2023-06-26T01:10:26;17.10;99.90
15546;DHT22;7874;48.870;11.074;2023-06-26T01:17:12;16.80;99.90
15546;DHT22;7874;48.870;11.074;2023-06-26T01:40:34;16.70;99.90
15546;DHT22;7874;48.870;11.074;2023-06-26T01:43:57;16.60;99.90
15546;DHT22;7874;48.870;11.074;2023-06-26T01:47:03;16.50;99.90
15546;DHT22;7874;48.870;11.074;2023-06-26T02:04:04;16.30;99.90
15546;DHT22;7874;48.870;11.074;2023-06-26T02:06:48;16.20;99.90
15546;DHT22;7874;48.870;11.074;2023-06-26T02:09:24;16.20;99.90
15546;DHT22;7874;48.870;11.074;2023-06-26T02:11:54;16.10;99.90
15546;DHT22;7874;48.870;11.074;2023-06-26T02:14:22;16.20;99.90
15546;DHT22;7874;48.870;11.074;2023-06-26T02:16:51;16.30;99.90
15546;DHT22;7874;48.870;11.074;2023-06-26T02:19:18;16.30;99.90
15546;DHT22;7874;48.870;11.074;2023-06-26T02:21:47;16.30;99.90
15546;DHT22;7874;48.870;11.074;2023-06-26T02:24:15;16.30;99.90
15546;DHT22;7874;48.870;11.074;2023-06-26T02:26:42;16.20;99.90
15546;DHT22;7874;48.870;11.074;2023-06-26T02:29:10;16.10;99.90
15546;DHT22;7874;48.870;11.074;2023-06-26T02:31:37;16.10;99.90
15546;DHT22;7874;48.870;11.074;2023-06-26T02:34:06;16.10;99.90
15546;DHT22;7874;48.870;11.074;2023-06-26T02:36:34;16.00;99.90
15546;DHT22;7874;48.870;11.074;2023-06-26T02:39:01;16.00;99.90
15546;DHT22;7874;48.870;11.074;2023-06-26T02:41:29;16.00;99.90
15546;DHT22;7874;48.870;11.074;2023-06-26T02:43:57;16.00;99.90
15546;DHT22;7874;48.870;11.074;2023-06-26T02:46:27;15.90;99.90
15546;DHT22;7874;48.870;11.074;2023-06-26T02:48:54;16.00;99.90
15546;DHT22;7874;48.870;11.074;2023-06-26T02:51:23;15.90;99.90
15546;DHT22;7874;48.870;11.074;2023-06-26T02:53:50;15.90;99.90
15546;DHT22;7874;48.870;11.074;2023-06-26T02:56:18;15.90;99.90
15546;DHT22;7874;48.870;11.074;2023-06-26T02:58:49;15.80;99.90
15546;DHT22;7874;48.870;11.074;2023-06-26T03:01:16;15.80;99.90
15546;DHT22;7874;48.870;11.074;2023-06-26T03:03:46;15.80;99.90
15546;DHT22;7874;48.870;11.074;2023-06-26T03:06:13;15.80;99.90
15546;DHT22;7874;48.870;11.074;2023-06-26T03:08:43;15.70;99.90
15546;DHT22;7874;48.870;11.074;2023-06-26T03:11:10;15.80;99.90
15546;DHT22;7874;48.870;11.074;2023-06-26T03:13:38;15.80;99.90
15546;DHT22;7874;48.870;11.074;2023-06-26T03:16:06;15.80;99.90
15546;DHT22;7874;48.870;11.074;2023-06-26T03:18:33;15.70;99.90
15546;DHT22;7874;48.870;11.074;2023-06-26T03:21:01;15.60;99.90
15546;DHT22;7874;48.870;11.074;2023-06-26T03:23:29;15.60;99.90
15546;DHT22;7874;48.870;11.074;2023-06-26T03:25:58;15.50;99.90
15546;DHT22;7874;48.870;11.074;2023-06-26T03:28:25;15.70;99.90
15546;DHT22;7874;48.870;11.074;2023-06-26T03:30:52;15.70;99.90
15546;DHT22;7874;48.870;11.074;2023-06-26T03:33:19;15.70;99.90
15546;DHT22;7874;48.870;11.074;2023-06-26T03:35:46;15.60;99.90
15546;DHT22;7874;48.870;11.074;2023-06-26T03:38:12;15.60;99.90
15546;DHT22;7874;48.870;11.074;2023-06-26T03:40:39;15.50;99.90
15546;DHT22;7874;48.870;11.074;2023-06-26T03:43:07;15.50;99.90
15546;DHT22;7874;48.870;11.074;2023-06-26T03:45:34;15.50;99.90
15546;DHT22;7874;48.870;11.074;2023-06-26T03:48:01;15.60;99.90
15546;DHT22;7874;48.870;11.074;2023-06-26T03:50:28;15.60;99.90
15546;DHT22;7874;48.870;11.074;2023-06-26T03:52:54;15.70;99.90
15546;DHT22;7874;48.870;11.074;2023-06-26T03:55:21;15.60;99.90
15546;DHT22;7874;48.870;11.074;2023-06-26T03:57:49;15.70;99.90
15546;DHT22;7874;48.870;11.074;2023-06-26T04:00:18;15.60;99.90
15546;DHT22;7874;48.870;11.074;2023-06-26T04:02:52;15.60;99.90
15546;DHT22;7874;48.870;11.074;2023-06-26T04:05:19;15.60;99.90
15546;DHT22;7874;48.870;11.074;2023-06-26T04:07:49;15.60;99.90
15546;DHT22;7874;48.870;11.074;2023-06-26T04:10:16;15.60;99.90
15546;DHT22;7874;48.870;11.074;2023-06-26T04:12:42;15.60;99.90
15546;DHT22;7874;48.870;11.074;2023-06-26T04:15:10;15.70;99.90
15546;DHT22;7874;48.870;11.074;2023-06-26T04:17:38;15.70;99.90
15546;DHT22;7874;48.870;11.074;2023-06-26T04:20:06;15.80;99.90
15546;DHT22;7874;48.870;11.074;2023-06-26T04:22:34;15.70;99.90
15546;DHT22;7874;48.870;11.074;2023-06-26T04:25:02;15.90;99.90
15546;DHT22;7874;48.870;11.074;2023-06-26T04:27:30;15.90;99.90
15546;DHT22;7874;48.870;11.074;2023-06-26T04:29:57;16.00;99.90
15546;DHT22;7874;48.870;11.074;2023-06-26T04:32:24;16.10;99.90
15546;DHT22;7874;48.870;11.074;2023-06-26T04:34:53;16.30;99.90
15546;DHT22;7874;48.870;11.074;2023-06-26T04:39:12;16.20;99.90
15546;DHT22;7874;48.870;11.074;2023-06-26T04:41:40;16.30;99.90
15546;DHT22;7874;48.870;11.074;2023-06-26T04:44:07;16.40;99.90
15546;DHT22;7874;48.870;11.074;2023-06-26T04:46:33;16.40;99.90
15546;DHT22;7874;48.870;11.074;2023-06-26T04:49:00;16.50;99.90
15546;DHT22;7874;48.870;11.074;2023-06-26T04:51:28;16.60;99.90
15546;DHT22;7874;48.870;11.074;2023-06-26T04:53:55;16.70;99.90
15546;DHT22;7874;48.870;11.074;2023-06-26T04:56:24;16.80;99.90
15546;DHT22;7874;48.870;11.074;2023-06-26T04:58:52;17.00;99.90
15546;DHT22;7874;48.870;11.074;2023-06-26T05:01:19;17.20;99.90
15546;DHT22;7874;48.870;11.074;2023-06-26T05:03:46;17.30;99.90
15546;DHT22;7874;48.870;11.074;2023-06-26T05:06:13;17.50;99.90
15546;DHT22;7874;48.870;11.074;2023-06-26T05:08:40;17.80;99.90
15546;DHT22;7874;48.870;11.074;2023-06-26T06:32:15;22.70;99.90
15546;DHT22;7874;48.870;11.074;2023-06-26T06:34:41;22.70;99.90
15546;DHT22;7874;48.870;11.074;2023-06-26T06:37:08;22.90;99.90
15546;DHT22;7874;48.870;11.074;2023-06-26T06:39:35;23.20;99.90
15546;DHT22;7874;48.870;11.074;2023-06-26T06:42:02;23.30;99.90
15546;DHT22;7874;48.870;11.074;2023-06-26T06:44:29;23.50;99.90
15546;DHT22;7874;48.870;11.074;2023-06-26T06:46:56;23.80;99.90
15546;DHT22;7874;48.870;11.074;2023-06-26T06:49:27;23.90;99.90
15546;DHT22;7874;48.870;11.074;2023-06-26T06:51:54;24.20;99.90
15546;DHT22;7874;48.870;11.074;2023-06-26T06:54:20;24.40;99.90
15546;DHT22;7874;48.870;11.074;2023-06-26T06:56:47;24.60;98.80
15546;DHT22;7874;48.870;11.074;2023-06-26T06:59:14;24.70;99.00
15546;DHT22;7874;48.870;11.074;2023-06-26T07:01:41;25.10;98.80
15546;DHT22;7874;48.870;11.074;2023-06-26T07:04:08;25.40;97.40
15546;DHT22;7874;48.870;11.074;2023-06-26T07:06:36;25.50;96.50
15546;DHT22;7874;48.870;11.074;2023-06-26T07:09:03;25.70;95.50
15546;DHT22;7874;48.870;11.074;2023-06-26T07:11:31;25.70;95.30
15546;DHT22;7874;48.870;11.074;2023-06-26T07:13:58;26.10;95.40
15546;DHT22;7874;48.870;11.074;2023-06-26T07:16:25;26.10;94.10
15546;DHT22;7874;48.870;11.074;2023-06-26T07:18:52;26.00;94.10
15546;DHT22;7874;48.870;11.074;2023-06-26T07:21:20;26.20;94.60
15546;DHT22;7874;48.870;11.074;2023-06-26T07:23:48;26.30;93.80
15546;DHT22;7874;48.870;11.074;2023-06-26T07:28:11;26.50;93.70
15546;DHT22;7874;48.870;11.074;2023-06-26T07:30:38;26.60;92.80
15546;DHT22;7874;48.870;11.074;2023-06-26T07:33:05;26.70;93.00
15546;DHT22;7874;48.870;11.074;2023-06-26T07:35:33;26.80;92.40
15546;DHT22;7874;48.870;11.074;2023-06-26T07:38:00;26.90;92.00
15546;DHT22;7874;48.870;11.074;2023-06-26T07:40:27;27.10;92.40
15546;DHT22;7874;48.870;11.074;2023-06-26T07:42:54;27.00;92.00
15546;DHT22;7874;48.870;11.074;2023-06-26T07:45:25;27.00;91.40
15546;DHT22;7874;48.870;11.074;2023-06-26T07:47:55;27.20;91.40
15546;DHT22;7874;48.870;11.074;2023-06-26T07:50:22;27.40;91.10
15546;DHT22;7874;48.870;11.074;2023-06-26T07:52:50;27.50;90.80
15546;DHT22;7874;48.870;11.074;2023-06-26T07:55:19;27.80;90.80
15546;DHT22;7874;48.870;11.074;2023-06-26T07:57:51;27.80;90.00
15546;DHT22;7874;48.870;11.074;2023-06-26T08:00:36;28.00;90.70
15546;DHT22;7874;48.870;11.074;2023-06-26T08:03:03;28.00;88.50
15546;DHT22;7874;48.870;11.074;2023-06-26T08:05:31;28.20;89.50
15546;DHT22;7874;48.870;11.074;2023-06-26T08:08:01;28.30;89.50
15546;DHT22;7874;48.870;11.074;2023-06-26T08:10:28;28.60;88.30
15546;DHT22;7874;48.870;11.074;2023-06-26T08:13:03;28.70;89.40
15546;DHT22;7874;48.870;11.074;2023-06-26T08:15:32;28.90;88.00
15546;DHT22;7874;48.870;11.074;2023-06-26T08:17:59;29.00;88.20
15546;DHT22;7874;48.870;11.074;2023-06-26T08:20:34;29.30;88.10
15546;DHT22;7874;48.870;11.074;2023-06-26T08:23:10;29.50;88.80
15546;DHT22;7874;48.870;11.074;2023-06-26T08:25:50;29.60;87.20
15546;DHT22;7874;48.870;11.074;2023-06-26T08:28:17;29.40;86.10
15546;DHT22;7874;48.870;11.074;2023-06-26T08:30:46;29.20;84.60
15546;DHT22;7874;48.870;11.074;2023-06-26T08:33:12;29.60;85.70
15546;DHT22;7874;48.870;11.074;2023-06-26T08:35:39;29.90;85.00
15546;DHT22;7874;48.870;11.074;2023-06-26T08:38:06;29.90;82.90
15546;DHT22;7874;48.870;11.074;2023-06-26T08:40:34;30.10;83.00
15546;DHT22;7874;48.870;11.074;2023-06-26T08:43:02;30.40;82.80
15546;DHT22;7874;48.870;11.074;2023-06-26T08:45:29;30.90;81.60
15546;DHT22;7874;48.870;11.074;2023-06-26T08:48:00;31.00;79.70
15546;DHT22;7874;48.870;11.074;2023-06-26T08:50:30;31.10;80.70
15546;DHT22;7874;48.870;11.074;2023-06-26T08:53:04;31.20;81.50
15546;DHT22;7874;48.870;11.074;2023-06-26T08:55:39;31.20;80.20
15546;DHT22;7874;48.870;11.074;2023-06-26T08:58:07;31.50;81.90
15546;DHT22;7874;48.870;11.074;2023-06-26T09:00:34;31.60;79.50
15546;DHT22;7874;48.870;11.074;2023-06-26T09:03:03;32.00;78.50
15546;DHT22;7874;48.870;11.074;2023-06-26T09:05:30;32.20;78.00
15546;DHT22;7874;48.870;11.074;2023-06-26T09:07:58;32.60;79.40
15546;DHT22;7874;48.870;11.074;2023-06-26T09:10:25;33.00;75.90
15546;DHT22;7874;48.870;11.074;2023-06-26T09:12:55;33.50;76.30
15546;DHT22;7874;48.870;11.074;2023-06-26T09:15:22;33.80;76.30
15546;DHT22;7874;48.870;11.074;2023-06-26T09:17:49;34.30;74.90
15546;DHT22;7874;48.870;11.074;2023-06-26T09:20:18;34.60;73.60
15546;DHT22;7874;48.870;11.074;2023-06-26T09:22:47;34.50;74.20
15546;DHT22;7874;48.870;11.074;2023-06-26T09:25:15;34.90;72.30
15546;DHT22;7874;48.870;11.074;2023-06-26T09:27:43;35.10;74.00
15546;DHT22;7874;48.870;11.074;2023-06-26T09:30:11;35.20;69.80
15546;DHT22;7874;48.870;11.074;2023-06-26T09:32:37;35.30;67.70
15546;DHT22;7874;48.870;11.074;2023-06-26T09:35:05;35.30;68.60
15546;DHT22;7874;48.870;11.074;2023-06-26T09:37:34;35.40;67.80
15546;DHT22;7874;48.870;11.074;2023-06-26T09:40:01;35.50;70.70
15546;DHT22;7874;48.870;11.074;2023-06-26T09:42:29;35.50;68.60
15546;DHT22;7874;48.870;11.074;2023-06-26T09:44:56;35.80;68.20
15546;DHT22;7874;48.870;11.074;2023-06-26T09:47:23;35.90;69.30
15546;DHT22;7874;48.870;11.074;2023-06-26T09:49:51;36.30;68.30
15546;DHT22;7874;48.870;11.074;2023-06-26T09:52:20;36.40;65.40
15546;DHT22;7874;48.870;11.074;2023-06-26T09:54:48;36.40;64.40
15546;DHT22;7874;48.870;11.074;2023-06-26T09:57:16;36.60;66.30
15546;DHT22;7874;48.870;11.074;2023-06-26T09:59:44;37.20;64.60
15546;DHT22;7874;48.870;11.074;2023-06-26T10:02:11;37.00;62.40
15546;DHT22;7874;48.870;11.074;2023-06-26T10:04:38;37.10;63.30
15546;DHT22;7874;48.870;11.074;2023-06-26T10:07:06;36.90;66.20
15546;DHT22;7874;48.870;11.074;2023-06-26T10:09:37;37.30;64.90
15546;DHT22;7874;48.870;11.074;2023-06-26T10:12:08;37.40;63.00
15546;DHT22;7874;48.870;11.074;2023-06-26T10:16:50;37.80;63.60
15546;DHT22;7874;48.870;11.074;2023-06-26T10:19:19;36.90;64.20
15546;DHT22;7874;48.870;11.074;2023-06-26T10:21:51;37.10;64.80
15546;DHT22;7874;48.870;11.074;2023-06-26T10:24:19;37.40;63.50
15546;DHT22;7874;48.870;11.074;2023-06-26T10:26:52;37.10;63.50
15546;DHT22;7874;48.870;11.074;2023-06-26T10:29:22;37.50;62.90
15546;DHT22;7874;48.870;11.074;2023-06-26T10:31:56;37.50;63.50
15546;DHT22;7874;48.870;11.074;2023-06-26T10:34:25;37.90;62.80
15546;DHT22;7874;48.870;11.074;2023-06-26T10:36:59;38.40;63.00
15546;DHT22;7874;48.870;11.074;2023-06-26T10:39:26;38.70;62.10
15546;DHT22;7874;48.870;11.074;2023-06-26T10:41:54;38.70;62.90
15546;DHT22;7874;48.870;11.074;2023-06-26T10:44:21;38.70;60.80
15546;DHT22;7874;48.870;11.074;2023-06-26T10:46:49;38.60;60.60
15546;DHT22;7874;48.870;11.074;2023-06-26T10:49:20;38.60;64.10
15546;DHT22;7874;48.870;11.074;2023-06-26T10:51:47;38.70;63.80
15546;DHT22;7874;48.870;11.074;2023-06-26T10:54:15;38.40;61.00
15546;DHT22;7874;48.870;11.074;2023-06-26T10:56:43;38.50;61.50
15546;DHT22;7874;48.870;11.074;2023-06-26T10:59:14;38.70;62.40
15546;DHT22;7874;48.870;11.074;2023-06-26T11:01:43;38.70;63.40
15546;DHT22;7874;48.870;11.074;2023-06-26T11:04:10;38.20;62.30
15546;DHT22;7874;48.870;11.074;2023-06-26T11:06:39;37.50;62.70
15546;DHT22;7874;48.870;11.074;2023-06-26T11:09:15;37.30;61.00
15546;DHT22;7874;48.870;11.074;2023-06-26T11:12:00;36.00;65.20
15546;DHT22;7874;48.870;11.074;2023-06-26T11:14:35;36.50;63.10
15546;DHT22;7874;48.870;11.074;2023-06-26T11:17:03;37.50;62.50
15546;DHT22;7874;48.870;11.074;2023-06-26T11:19:30;38.30;61.60
15546;DHT22;7874;48.870;11.074;2023-06-26T11:22:01;38.50;58.60
15546;DHT22;7874;48.870;11.074;2023-06-26T11:24:29;38.70;58.90
15546;DHT22;7874;48.870;11.074;2023-06-26T11:27:00;39.20;60.50
15546;DHT22;7874;48.870;11.074;2023-06-26T11:29:27;39.20;58.60
15546;DHT22;7874;48.870;11.074;2023-06-26T11:32:03;39.20;57.90
15546;DHT22;7874;48.870;11.074;2023-06-26T11:34:31;39.00;58.10
15546;DHT22;7874;48.870;11.074;2023-06-26T11:36:59;39.10;58.60
15546;DHT22;7874;48.870;11.074;2023-06-26T11:39:30;39.60;58.20
15546;DHT22;7874;48.870;11.074;2023-06-26T11:41:57;39.90;57.10
15546;DHT22;7874;48.870;11.074;2023-06-26T11:44:24;39.60;59.10
15546;DHT22;7874;48.870;11.074;2023-06-26T11:46:56;39.80;57.50
15546;DHT22;7874;48.870;11.074;2023-06-26T11:49:23;40.00;57.20
15546;DHT22;7874;48.870;11.074;2023-06-26T11:51:52;40.20;58.80
15546;DHT22;7874;48.870;11.074;2023-06-26T11:54:30;39.80;57.60
15546;DHT22;7874;48.870;11.074;2023-06-26T11:56:58;39.90;57.20
15546;DHT22;7874;48.870;11.074;2023-06-26T11:59:33;39.40;56.30
15546;DHT22;7874;48.870;11.074;2023-06-26T12:02:04;39.30;56.80
15546;DHT22;7874;48.870;11.074;2023-06-26T12:04:31;39.40;57.80
15546;DHT22;7874;48.870;11.074;2023-06-26T12:06:59;39.60;55.50
15546;DHT22;7874;48.870;11.074;2023-06-26T12:09:31;40.00;57.50
15546;DHT22;7874;48.870;11.074;2023-06-26T12:11:59;39.70;57.30
15546;DHT22;7874;48.870;11.074;2023-06-26T12:14:27;40.00;55.70
15546;DHT22;7874;48.870;11.074;2023-06-26T12:16:54;40.20;55.90
15546;DHT22;7874;48.870;11.074;2023-06-26T12:19:24;40.20;54.40
15546;DHT22;7874;48.870;11.074;2023-06-26T12:21:52;40.10;55.20
15546;DHT22;7874;48.870;11.074;2023-06-26T12:24:22;38.50;55.20
15546;DHT22;7874;48.870;11.074;2023-06-26T12:26:53;36.60;57.00
15546;DHT22;7874;48.870;11.074;2023-06-26T12:29:29;36.00;57.70
15546;DHT22;7874;48.870;11.074;2023-06-26T12:31:56;36.80;59.30
15546;DHT22;7874;48.870;11.074;2023-06-26T12:34:35;37.30;58.00
15546;DHT22;7874;48.870;11.074;2023-06-26T12:37:20;36.20;59.60
15546;DHT22;7874;48.870;11.074;2023-06-26T12:43:09;36.20;58.70
15546;DHT22;7874;48.870;11.074;2023-06-26T12:48:47;38.00;58.20
15546;DHT22;7874;48.870;11.074;2023-06-26T12:58:02;38.00;56.90
15546;DHT22;7874;48.870;11.074;2023-06-26T13:00:52;37.40;57.30
15546;DHT22;7874;48.870;11.074;2023-06-26T13:19:08;38.30;55.90
15546;DHT22;7874;48.870;11.074;2023-06-26T13:21:47;38.70;55.30
15546;DHT22;7874;48.870;11.074;2023-06-26T13:24:16;37.70;56.30
15546;DHT22;7874;48.870;11.074;2023-06-26T13:26:44;36.80;55.90
15546;DHT22;7874;48.870;11.074;2023-06-26T13:29:14;36.70;56.00
15546;DHT22;7874;48.870;11.074;2023-06-26T13:31:44;36.40;56.50
15546;DHT22;7874;48.870;11.074;2023-06-26T13:34:22;36.90;58.20
15546;DHT22;7874;48.870;11.074;2023-06-26T13:37:06;37.70;56.70
15546;DHT22;7874;48.870;11.074;2023-06-26T13:39:33;38.00;54.90
15546;DHT22;7874;48.870;11.074;2023-06-26T13:42:00;37.50;56.30
15546;DHT22;7874;48.870;11.074;2023-06-26T13:44:27;37.60;56.70
15546;DHT22;7874;48.870;11.074;2023-06-26T13:46:54;37.60;55.70
15546;DHT22;7874;48.870;11.074;2023-06-26T13:49:22;37.10;56.60
15546;DHT22;7874;48.870;11.074;2023-06-26T13:51:48;37.20;58.70
15546;DHT22;7874;48.870;11.074;2023-06-26T13:54:15;36.40;57.50
15546;DHT22;7874;48.870;11.074;2023-06-26T13:56:43;35.50;59.90
15546;DHT22;7874;48.870;11.074;2023-06-26T13:59:10;35.20;59.30
15546;DHT22;7874;48.870;11.074;2023-06-26T14:01:37;34.40;59.50
15546;DHT22;7874;48.870;11.074;2023-06-26T14:04:04;34.10;60.10
15546;DHT22;7874;48.870;11.074;2023-06-26T14:06:32;33.70;61.30
15546;DHT22;7874;48.870;11.074;2023-06-26T14:09:00;33.30;60.40
15546;DHT22;7874;48.870;11.074;2023-06-26T14:11:26;33.00;62.40
15546;DHT22;7874;48.870;11.074;2023-06-26T14:13:53;32.90;61.90
15546;DHT22;7874;48.870;11.074;2023-06-26T14:16:20;32.70;63.80
15546;DHT22;7874;48.870;11.074;2023-06-26T14:18:47;32.80;62.80
15546;DHT22;7874;48.870;11.074;2023-06-26T14:21:13;33.10;62.50
15546;DHT22;7874;48.870;11.074;2023-06-26T14:23:42;33.10;61.90
15546;DHT22;7874;48.870;11.074;2023-06-26T14:26:09;33.10;64.40
15546;DHT22;7874;48.870;11.074;2023-06-26T14:28:35;33.00;63.70
15546;DHT22;7874;48.870;11.074;2023-06-26T14:31:02;33.00;64.90
15546;DHT22;7874;48.870;11.074;2023-06-26T14:33:29;33.30;63.30
15546;DHT22;7874;48.870;11.074;2023-06-26T14:35:56;33.00;62.50
15546;DHT22;7874;48.870;11.074;2023-06-26T14:38:23;32.80;63.20
15546;DHT22;7874;48.870;11.074;2023-06-26T14:40:51;32.50;64.70
15546;DHT22;7874;48.870;11.074;2023-06-26T14:43:18;32.30;64.10
15546;DHT22;7874;48.870;11.074;2023-06-26T14:45:44;32.20;64.70
15546;DHT22;7874;48.870;11.074;2023-06-26T14:48:11;32.20;66.30
15546;DHT22;7874;48.870;11.074;2023-06-26T14:50:38;32.10;67.40
15546;DHT22;7874;48.870;11.074;2023-06-26T14:53:05;32.00;65.60
15546;DHT22;7874;48.870;11.074;2023-06-26T14:55:31;31.90;67.90
15546;DHT22;7874;48.870;11.074;2023-06-26T14:57:59;31.80;67.00
15546;DHT22;7874;48.870;11.074;2023-06-26T15:00:26;31.60;66.60
15546;DHT22;7874;48.870;11.074;2023-06-26T15:02:55;31.50;66.00
15546;DHT22;7874;48.870;11.074;2023-06-26T15:05:24;31.30;66.80
15546;DHT22;7874;48.870;11.074;2023-06-26T15:07:50;31.10;67.50
15546;DHT22;7874;48.870;11.074;2023-06-26T15:10:17;31.10;67.80
15546;DHT22;7874;48.870;11.074;2023-06-26T15:12:44;31.00;68.30
15546;DHT22;7874;48.870;11.074;2023-06-26T15:15:12;31.20;68.90
15546;DHT22;7874;48.870;11.074;2023-06-26T15:17:39;31.50;68.50
15546;DHT22;7874;48.870;11.074;2023-06-26T15:20:06;31.50;69.10
15546;DHT22;7874;48.870;11.074;2023-06-26T15:22:33;31.40;67.60
15546;DHT22;7874;48.870;11.074;2023-06-26T15:25:00;31.40;68.10
15546;DHT22;7874;48.870;11.074;2023-06-26T15:27:27;31.30;68.90
15546;DHT22;7874;48.870;11.074;2023-06-26T15:29:54;31.20;68.50
15546;DHT22;7874;48.870;11.074;2023-06-26T15:32:22;31.40;68.50
15546;DHT22;7874;48.870;11.074;2023-06-26T15:34:49;31.50;69.10
15546;DHT22;7874;48.870;11.074;2023-06-26T15:37:16;31.30;69.00
15546;DHT22;7874;48.870;11.074;2023-06-26T15:39:43;31.00;69.90
15546;DHT22;7874;48.870;11.074;2023-06-26T15:42:09;30.90;71.00
15546;DHT22;7874;48.870;11.074;2023-06-26T15:44:36;30.80;70.80
15546;DHT22;7874;48.870;11.074;2023-06-26T15:47:03;30.90;70.30
15546;DHT22;7874;48.870;11.074;2023-06-26T15:49:32;31.00;70.10
15546;DHT22;7874;48.870;11.074;2023-06-26T15:54:16;31.00;70.50
15546;DHT22;7874;48.870;11.074;2023-06-26T15:56:45;31.00;69.20
15546;DHT22;7874;48.870;11.074;2023-06-26T15:59:14;30.80;70.30
15546;DHT22;7874;48.870;11.074;2023-06-26T16:01:44;30.80;71.20
15546;DHT22;7874;48.870;11.074;2023-06-26T16:04:11;30.60;70.90
15546;DHT22;7874;48.870;11.074;2023-06-26T16:06:38;30.50;71.10
15546;DHT22;7874;48.870;11.074;2023-06-26T16:09:05;30.50;71.30
15546;DHT22;7874;48.870;11.074;2023-06-26T16:11:35;30.40;71.90
15546;DHT22;7874;48.870;11.074;2023-06-26T16:14:01;30.20;71.90
15546;DHT22;7874;48.870;11.074;2023-06-26T16:16:28;30.20;72.10
15546;DHT22;7874;48.870;11.074;2023-06-26T16:18:55;30.20;72.60
15546;DHT22;7874;48.870;11.074;2023-06-26T16:21:22;30.00;72.00
15546;DHT22;7874;48.870;11.074;2023-06-26T16:23:49;29.90;71.70
15546;DHT22;7874;48.870;11.074;2023-06-26T16:26:15;29.80;72.60
15546;DHT22;7874;48.870;11.074;2023-06-26T16:28:43;29.80;75.50
15546;DHT22;7874;48.870;11.074;2023-06-26T16:31:13;29.80;73.10
15546;DHT22;7874;48.870;11.074;2023-06-26T16:33:40;29.70;73.90
15546;DHT22;7874;48.870;11.074;2023-06-26T16:36:07;29.60;74.10
15546;DHT22;7874;48.870;11.074;2023-06-26T16:38:33;29.50;74.50
15546;DHT22;7874;48.870;11.074;2023-06-26T16:41:00;29.20;75.00
15546;DHT22;7874;48.870;11.074;2023-06-26T16:43:27;29.20;75.30
15546;DHT22;7874;48.870;11.074;2023-06-26T16:45:55;29.30;75.80
15546;DHT22;7874;48.870;11.074;2023-06-26T16:48:22;29.40;76.70
15546;DHT22;7874;48.870;11.074;2023-06-26T16:50:49;29.30;75.20
15546;DHT22;7874;48.870;11.074;2023-06-26T16:53:16;29.20;75.80
15546;DHT22;7874;48.870;11.074;2023-06-26T16:55:43;29.10;76.70
15546;DHT22;7874;48.870;11.074;2023-06-26T16:58:10;28.90;76.00
15546;DHT22;7874;48.870;11.074;2023-06-26T17:00:37;28.90;75.80
15546;DHT22;7874;48.870;11.074;2023-06-26T17:03:06;28.80;75.00
15546;DHT22;7874;48.870;11.074;2023-06-26T17:05:33;28.80;74.60
15546;DHT22;7874;48.870;11.074;2023-06-26T17:07:59;28.80;74.90
15546;DHT22;7874;48.870;11.074;2023-06-26T17:10:26;28.60;74.30
15546;DHT22;7874;48.870;11.074;2023-06-26T17:12:53;28.50;74.40
15546;DHT22;7874;48.870;11.074;2023-06-26T17:15:20;28.50;73.60
15546;DHT22;7874;48.870;11.074;2023-06-26T17:17:48;28.40;73.40
15546;DHT22;7874;48.870;11.074;2023-06-26T17:20:17;28.30;72.90
15546;DHT22;7874;48.870;11.074;2023-06-26T17:22:45;28.20;73.00
15546;DHT22;7874;48.870;11.074;2023-06-26T17:25:13;28.10;72.80
15546;DHT22;7874;48.870;11.074;2023-06-26T17:27:40;28.10;72.70
15546;DHT22;7874;48.870;11.074;2023-06-26T17:30:07;28.10;72.70
15546;DHT22;7874;48.870;11.074;2023-06-26T17:32:35;28.00;72.50
15546;DHT22;7874;48.870;11.074;2023-06-26T17:35:02;28.10;73.10
15546;DHT22;7874;48.870;11.074;2023-06-26T17:37:35;28.10;72.60
15546;DHT22;7874;48.870;11.074;2023-06-26T17:40:03;28.00;72.90
15546;DHT22;7874;48.870;11.074;2023-06-26T17:42:34;28.00;73.20
15546;DHT22;7874;48.870;11.074;2023-06-26T17:45:06;27.90;73.00
15546;DHT22;7874;48.870;11.074;2023-06-26T17:47:33;27.80;72.90
15546;DHT22;7874;48.870;11.074;2023-06-26T17:50:00;27.70;73.10
15546;DHT22;7874;48.870;11.074;2023-06-26T17:52:26;27.60;71.50
15546;DHT22;7874;48.870;11.074;2023-06-26T17:54:54;27.50;71.50
15546;DHT22;7874;48.870;11.074;2023-06-26T17:57:21;27.50;71.30
15546;DHT22;7874;48.870;11.074;2023-06-26T17:59:48;27.40;72.00
15546;DHT22;7874;48.870;11.074;2023-06-26T18:02:15;27.30;72.10
15546;DHT22;7874;48.870;11.074;2023-06-26T18:04:41;27.20;72.60
15546;DHT22;7874;48.870;11.074;2023-06-26T18:07:08;27.10;72.40
15546;DHT22;7874;48.870;11.074;2023-06-26T18:09:35;27.10;72.60
15546;DHT22;7874;48.870;11.074;2023-06-26T18:12:04;26.90;71.80
15546;DHT22;7874;48.870;11.074;2023-06-26T18:14:31;26.90;72.20
15546;DHT22;7874;48.870;11.074;2023-06-26T18:16:57;26.80;72.50
15546;DHT22;7874;48.870;11.074;2023-06-26T18:19:24;26.70;72.60
15546;DHT22;7874;48.870;11.074;2023-06-26T18:21:51;26.70;72.60
15546;DHT22;7874;48.870;11.074;2023-06-26T18:24:18;26.60;72.50
15546;DHT22;7874;48.870;11.074;2023-06-26T18:26:44;26.50;72.80
15546;DHT22;7874;48.870;11.074;2023-06-26T18:29:12;26.40;73.10
15546;DHT22;7874;48.870;11.074;2023-06-26T18:31:39;26.40;73.10
15546;DHT22;7874;48.870;11.074;2023-06-26T18:34:07;26.30;73.30
15546;DHT22;7874;48.870;11.074;2023-06-26T18:36:33;26.30;73.50
15546;DHT22;7874;48.870;11.074;2023-06-26T18:39:00;26.20;73.70
15546;DHT22;7874;48.870;11.074;2023-06-26T18:43:02;26.20;73.90
15546;DHT22;7874;48.870;11.074;2023-06-26T18:45:28;26.00;73.50
15546;DHT22;7874;48.870;11.074;2023-06-26T18:47:55;26.00;74.20
15546;DHT22;7874;48.870;11.074;2023-06-26T18:50:22;25.90;74.00
15546;DHT22;7874;48.870;11.074;2023-06-26T18:52:52;25.90;73.70
15546;DHT22;7874;48.870;11.074;2023-06-26T18:55:19;25.90;74.00
15546;DHT22;7874;48.870;11.074;2023-06-26T18:57:47;25.80;75.00
15546;DHT22;7874;48.870;11.074;2023-06-26T19:00:17;25.70;74.80
15546;DHT22;7874;48.870;11.074;2023-06-26T19:02:45;25.60;74.90
15546;DHT22;7874;48.870;11.074;2023-06-26T19:05:12;25.60;75.00
15546;DHT22;7874;48.870;11.074;2023-06-26T19:07:40;25.60;74.80
15546;DHT22;7874;48.870;11.074;2023-06-26T19:10:08;25.50;74.70
15546;DHT22;7874;48.870;11.074;2023-06-26T19:12:36;25.40;74.50
15546;DHT22;7874;48.870;11.074;2023-06-26T19:15:04;25.30;74.10
15546;DHT22;7874;48.870;11.074;2023-06-26T19:17:33;25.20;73.80
15546;DHT22;7874;48.870;11.074;2023-06-26T19:20:00;25.20;73.60
15546;DHT22;7874;48.870;11.074;2023-06-26T19:22:27;25.10;74.60
15546;DHT22;7874;48.870;11.074;2023-06-26T19:24:55;25.00;74.60